Terminal Aerodrome Forecast
Issued by NWS

Home | Current Version | Previous Version | Text Only | Print | Product List | Glossary On
Versions: 1 2 3 4 5 6 7 8 9 10 11 12 13 14 15 16 17 18 19 20
000
FTUS43 KGRB 231120
TAFMTW
TAF
KMTW 231120Z 2312/2412 17009KT P6SM OVC080
      TEMPO 2312/2314 5SM -SHSN
     FM231500 16015G23KT P6SM OVC100
     FM232300 16014G22KT P6SM OVC060 WS020/21040KT
     FM240000 17012G17KT P6SM -RA OVC050 WS020/20045KT
     FM240500 18010KT P6SM -RA OVC040 WS020/23055KT
     FM240800 19005KT 6SM -RA OVC035 WS020/25060KT=

USA.gov is the U.S. government's official web portal to all federal, state and local government web resources and services.